Time;durP1;ratioP1;P1;durP2;ratioP2;P2;SDS_P1;SDS_P2;PMS_P1;PMS_P2;Temp;Humidity;BMP_temperature;BMP_pressure;BME280_temperature;BME280_humidity;BME280_pressure;Samples;Min_cycle;Max_cycle;Signal;HPM_P1;HPM_P2
2021/12/01 00:00:41;;;;;;;0.75;0.60;;;4.30;99.90;;;3.49;100.00;96715.06;5010273;28;20047;-46
2021/12/01 00:03:06;;;;;;;0.60;0.60;;;4.30;99.90;;;3.47;100.00;96717.69;5008579;28;20088;-46
2021/12/01 00:05:33;;;;;;;0.50;0.43;;;4.30;99.90;;;3.46;100.00;96720.31;5011552;28;20036;-46
2021/12/01 00:08:00;;;;;;;0.52;0.50;;;4.30;99.90;;;3.48;100.00;96703.75;5013035;28;20853;-45
2021/12/01 00:10:28;;;;;;;0.60;0.55;;;4.30;99.90;;;3.44;100.00;96704.72;5010034;28;20060;-48
2021/12/01 00:12:54;;;;;;;1.05;0.60;;;4.30;99.90;;;3.41;100.00;96689.13;5011938;28;20036;-46
2021/12/01 00:15:20;;;;;;;1.05;0.70;;;4.20;99.90;;;3.36;100.00;96689.22;4994751;28;20119;-46
2021/12/01 00:17:47;;;;;;;0.52;0.50;;;4.20;99.90;;;3.35;100.00;96689.25;5014184;28;20221;-45
2021/12/01 00:20:17;;;;;;;1.13;0.60;;;4.20;99.90;;;3.31;100.00;96704.09;5009766;28;20029;-46
2021/12/01 00:22:44;;;;;;;1.15;0.70;;;4.20;99.90;;;3.32;100.00;96691.91;5012428;28;20049;-46
2021/12/01 00:25:14;;;;;;;0.82;0.60;;;4.20;99.90;;;3.32;100.00;96689.31;5013190;28;20116;-47
2021/12/01 00:27:42;;;;;;;1.58;0.60;;;4.10;99.90;;;3.26;100.00;96687.69;5012374;28;20033;-48
2021/12/01 00:30:08;;;;;;;0.60;0.60;;;4.10;99.90;;;3.27;100.00;96683.31;5011426;28;20076;-47
2021/12/01 00:32:35;;;;;;;0.90;0.47;;;4.10;99.90;;;3.28;100.00;96685.06;5012356;28;20030;-49
2021/12/01 00:35:07;;;;;;;1.45;0.80;;;4.10;99.90;;;3.27;100.00;96692.03;5012259;28;20029;-47
2021/12/01 00:37:33;;;;;;;0.93;0.80;;;4.10;99.90;;;3.31;100.00;96687.59;5013264;28;20049;-46
2021/12/01 00:39:59;;;;;;;1.25;0.60;;;4.10;99.90;;;3.25;100.00;96681.63;5010730;28;20064;-46
2021/12/01 00:42:25;;;;;;;0.73;0.60;;;4.10;99.90;;;3.19;100.00;96681.72;5010116;28;20407;-44
2021/12/01 00:44:56;;;;;;;0.60;0.50;;;4.10;99.90;;;3.23;100.00;96674.69;5014161;28;20025;-47
2021/12/01 00:47:30;;;;;;;0.70;0.50;;;4.00;99.90;;;3.19;100.00;96679.13;5011404;28;20858;-47
2021/12/01 00:49:56;;;;;;;1.58;0.60;;;4.00;99.90;;;3.17;100.00;96667.03;5011452;28;20037;-46
2021/12/01 00:52:21;;;;;;;0.80;0.50;;;4.00;99.90;;;3.16;100.00;96663.56;5011454;28;20727;-47
2021/12/01 00:54:47;;;;;;;0.57;0.50;;;4.00;99.90;;;3.18;100.00;96650.50;5010177;28;20041;-46
2021/12/01 00:57:13;;;;;;;1.50;0.65;;;4.00;99.90;;;3.15;100.00;96651.41;5010266;28;20041;-47
2021/12/01 00:59:38;;;;;;;1.48;0.60;;;4.00;99.90;;;3.13;100.00;96649.75;5011769;28;20041;-48
2021/12/01 01:02:04;;;;;;;0.70;0.70;;;3.90;99.90;;;3.09;100.00;96651.53;5009735;28;20514;-43
2021/12/01 01:04:30;;;;;;;0.40;0.40;;;3.90;99.90;;;3.05;100.00;96655.06;5009064;28;20036;-44
2021/12/01 01:06:56;;;;;;;0.60;0.60;;;3.90;99.90;;;3.03;100.00;96649.91;5010920;28;20018;-46
2021/12/01 01:09:23;;;;;;;0.82;0.50;;;3.90;99.90;;;3.04;100.00;96640.34;5008125;28;20030;-45
2021/12/01 01:17:36;;;;;;;1.45;0.57;;;3.90;99.90;;;3.17;100.00;96656.59;5010310;28;21508;-47
2021/12/01 01:20:13;;;;;;;0.60;0.50;;;3.90;99.90;;;3.10;100.00;96642.81;5009516;28;20033;-44
2021/12/01 01:22:40;;;;;;;0.50;0.50;;;3.90;99.90;;;3.10;100.00;96641.97;5014338;28;20108;-43
2021/12/01 01:25:08;;;;;;;0.57;0.57;;;3.90;99.90;;;3.09;100.00;96640.25;5010490;28;20475;-46
2021/12/01 01:27:34;;;;;;;2.28;0.60;;;3.90;99.90;;;3.17;100.00;96638.34;4994385;28;20033;-45
2021/12/01 01:30:00;;;;;;;1.52;0.75;;;3.90;99.90;;;3.08;100.00;96633.34;5011637;28;20058;-48
2021/12/01 01:32:26;;;;;;;1.38;0.70;;;3.90;99.90;;;3.15;100.00;96634.94;5010437;28;20048;-47
2021/12/01 01:34:52;;;;;;;0.77;0.63;;;4.00;99.90;;;3.17;100.00;96640.97;5013145;28;20030;-46
2021/12/01 01:37:18;;;;;;;0.85;0.70;;;4.00;99.90;;;3.20;100.00;96635.69;5010057;28;20393;-45
2021/12/01 01:39:46;;;;;;;1.77;0.80;;;4.00;99.90;;;3.20;100.00;96640.91;5011148;28;20029;-47
2021/12/01 01:42:12;;;;;;;1.67;0.80;;;4.00;99.90;;;3.20;100.00;96636.56;5011391;28;20109;-46
2021/12/01 01:44:37;;;;;;;1.20;0.70;;;4.00;99.90;;;3.23;100.00;96631.28;5012681;28;20549;-45
2021/12/01 01:47:03;;;;;;;1.05;0.57;;;4.00;99.90;;;3.15;100.00;96617.53;5007524;28;20646;-47
2021/12/01 01:52:13;;;;;;;1.15;0.80;;;4.00;99.90;;;3.28;100.00;96622.50;5008096;28;20095;-46
2021/12/01 01:54:39;;;;;;;2.65;1.05;;;4.00;99.90;;;3.22;100.00;96626.94;5012570;28;20442;-44
2021/12/01 01:57:05;;;;;;;0.90;0.73;;;4.10;99.90;;;3.25;100.00;96619.06;5010735;28;20116;-45
2021/12/01 01:59:31;;;;;;;1.92;0.80;;;4.10;99.90;;;3.27;100.00;96611.22;5009956;28;20140;-46
2021/12/01 02:01:58;;;;;;;2.97;1.05;;;4.10;99.90;;;3.25;100.00;96603.44;5009573;28;20521;-45
2021/12/01 02:04:26;;;;;;;1.88;0.85;;;4.10;99.90;;;3.25;100.00;96600.84;5013002;28;20804;-45
2021/12/01 02:06:52;;;;;;;1.67;1.15;;;4.10;99.90;;;3.27;100.00;96598.19;5008737;28;20026;-48
2021/12/01 02:09:23;;;;;;;2.05;1.05;;;4.10;99.90;;;3.24;100.00;96604.31;5004710;28;20049;-47
2021/12/01 02:11:52;;;;;;;1.05;0.77;;;4.10;99.90;;;3.27;100.00;96598.19;5008289;28;20029;-47
2021/12/01 02:14:17;;;;;;;1.55;1.10;;;4.10;99.90;;;3.28;100.00;96594.69;5010349;28;20036;-48
2021/12/01 02:16:44;;;;;;;3.10;1.10;;;4.10;99.90;;;3.35;100.00;96595.44;5009998;28;20033;-44
2021/12/01 02:19:10;;;;;;;2.40;0.90;;;4.10;99.90;;;3.32;100.00;96591.16;5009842;28;20048;-49
2021/12/01 02:21:35;;;;;;;1.50;0.90;;;4.10;99.90;;;3.33;100.00;96582.44;5007528;28;20037;-48
2021/12/01 02:24:07;;;;;;;0.80;0.80;;;4.10;99.90;;;3.32;100.00;96572.03;5007271;28;20022;-49
2021/12/01 02:26:38;;;;;;;2.25;1.10;;;4.20;99.90;;;3.36;100.00;96568.50;5011726;28;20029;-44
2021/12/01 02:29:08;;;;;;;1.10;1.00;;;4.20;99.90;;;3.36;100.00;96569.34;5010791;28;20068;-46
2021/12/01 02:31:38;;;;;;;1.00;0.80;;;4.20;99.90;;;3.32;100.00;96566.81;5011196;28;20030;-47
2021/12/01 02:34:13;;;;;;;1.17;0.82;;;4.20;99.90;;;3.31;100.00;96562.50;5006919;28;20056;-48
2021/12/01 02:36:45;;;;;;;0.63;0.60;;;4.20;99.90;;;3.32;100.00;96554.66;5010342;28;20040;-46
2021/12/01 02:39:13;;;;;;;;;;;4.20;99.90;;;3.34;100.00;96549.41;5010293;28;20092;-48
2021/12/01 02:41:39;;;;;;;1.77;1.10;;;4.20;99.90;;;3.34;100.00;96536.34;5007861;28;19950;-46
2021/12/01 02:44:06;;;;;;;0.77;0.77;;;4.20;99.90;;;3.27;100.00;96521.75;5004868;28;20109;-48
2021/12/01 02:46:34;;;;;;;1.85;0.63;;;4.20;99.90;;;3.38;100.00;96538.88;5011353;28;20113;-46
2021/12/01 02:49:00;;;;;;;1.90;0.77;;;4.20;99.90;;;3.41;100.00;96532.72;5007631;28;20021;-47
2021/12/01 02:51:28;;;;;;;0.80;0.63;;;4.20;99.90;;;3.43;100.00;96530.97;5010011;28;20392;-46
2021/12/01 02:53:55;;;;;;;0.82;0.77;;;4.20;99.90;;;3.38;100.00;96522.41;5006120;28;20464;-49
2021/12/01 02:56:22;;;;;;;1.98;0.70;;;4.20;99.90;;;3.48;100.00;96520.41;5009552;28;20041;-48
2021/12/01 02:58:49;;;;;;;0.60;0.60;;;4.30;99.90;;;3.47;100.00;96522.19;5012186;28;20029;-47
2021/12/01 03:01:22;;;;;;;0.60;0.60;;;4.30;99.90;;;3.46;100.00;96517.00;5010947;28;20543;-49
2021/12/01 03:03:50;;;;;;;0.70;0.65;;;4.30;99.90;;;3.46;100.00;96520.44;5009227;28;20034;-44
2021/12/01 03:06:19;;;;;;;2.50;0.70;;;4.30;99.90;;;3.50;100.00;96514.31;4992566;28;20063;-46
2021/12/01 03:08:46;;;;;;;0.80;0.60;;;4.30;99.90;;;3.49;100.00;96503.91;5009906;28;20038;-46
2021/12/01 03:11:15;;;;;;;0.50;0.45;;;4.30;99.90;;;3.52;100.00;96502.06;5007050;28;20034;-48
2021/12/01 03:13:41;;;;;;;0.95;0.70;;;4.30;99.90;;;3.54;100.00;96502.91;5010199;28;20882;-47
2021/12/01 03:16:08;;;;;;;0.77;0.65;;;4.40;99.90;;;3.56;100.00;96493.28;5010594;28;20057;-47
2021/12/01 03:18:33;;;;;;;1.77;0.60;;;4.40;99.90;;;3.54;100.00;96487.25;5007305;28;20041;-47
2021/12/01 03:21:00;;;;;;;0.82;0.70;;;4.40;99.90;;;3.56;100.00;96472.44;5006679;28;20628;-46
2021/12/01 03:23:27;;;;;;;0.70;0.70;;;4.40;99.90;;;3.57;100.00;96468.06;5003903;28;20398;-46
2021/12/01 03:25:53;;;;;;;0.80;0.70;;;4.40;99.90;;;3.59;100.00;96472.38;5008336;28;20033;-49
2021/12/01 03:28:20;;;;;;;1.30;0.70;;;4.40;99.90;;;3.58;100.00;96469.78;5010780;28;20265;-47
2021/12/01 03:30:46;;;;;;;1.08;0.63;;;4.40;99.90;;;3.60;100.00;96454.97;5005947;28;20125;-49
2021/12/01 03:33:17;;;;;;;0.85;0.65;;;4.40;99.90;;;3.54;100.00;96457.72;5008629;28;20042;-48
2021/12/01 03:35:45;;;;;;;0.85;0.70;;;4.40;99.90;;;3.58;100.00;96459.34;5008265;28;20026;-50
2021/12/01 03:38:11;;;;;;;2.08;0.80;;;4.40;99.90;;;3.61;100.00;96457.53;5010160;28;20503;-43
2021/12/01 03:40:37;;;;;;;0.80;0.70;;;4.40;99.90;;;3.67;100.00;96456.53;5006179;28;20037;-46
2021/12/01 03:43:03;;;;;;;1.13;0.70;;;4.40;99.90;;;3.69;100.00;96446.91;5007029;28;20435;-47
2021/12/01 03:45:29;;;;;;;0.85;0.60;;;4.50;99.90;;;3.62;100.00;96441.00;5009883;28;20073;-44
2021/12/01 03:47:55;;;;;;;0.70;0.70;;;4.50;99.90;;;3.66;100.00;96457.44;5009078;28;20029;-48
2021/12/01 03:50:21;;;;;;;0.63;0.63;;;4.50;99.90;;;3.66;100.00;96438.31;5006349;28;20034;-47
2021/12/01 03:52:46;;;;;;;0.75;0.70;;;4.40;99.90;;;3.68;100.00;96444.34;5008037;28;20033;-48
2021/12/01 03:55:12;;;;;;;0.52;0.52;;;4.50;99.90;;;3.69;100.00;96440.84;5010043;28;20038;-49
2021/12/01 03:57:38;;;;;;;1.17;0.70;;;4.50;99.90;;;3.68;100.00;96432.19;5009630;28;20132;-46
2021/12/01 04:00:09;;;;;;;0.50;0.50;;;4.50;99.90;;;3.74;100.00;96428.56;4989400;28;20125;-44
2021/12/01 04:02:35;;;;;;;1.73;0.82;;;4.50;99.90;;;3.71;100.00;96411.22;5009835;28;20306;-48
2021/12/01 04:05:01;;;;;;;0.80;0.70;;;4.50;99.90;;;3.76;100.00;96417.16;5004951;28;20045;-49
2021/12/01 04:07:26;;;;;;;1.02;0.80;;;4.50;99.90;;;3.78;100.00;96410.16;5011338;28;20637;-47
2021/12/01 04:09:52;;;;;;;1.40;1.00;;;4.50;99.90;;;3.75;100.00;96401.56;5008637;28;20052;-47
2021/12/01 04:12:18;;;;;;;0.98;0.88;;;4.60;99.90;;;3.78;100.00;96394.50;5011050;28;20037;-46
2021/12/01 04:14:44;;;;;;;1.02;0.60;;;4.60;99.90;;;3.75;100.00;96393.75;5009628;28;20037;-45
2021/12/01 04:17:11;;;;;;;1.95;0.80;;;4.60;99.90;;;3.81;100.00;96388.38;5006355;28;20212;-46
2021/12/01 04:19:37;;;;;;;1.10;0.60;;;4.60;99.90;;;3.81;100.00;96383.16;5010122;28;20030;-45
2021/12/01 04:22:03;;;;;;;0.85;0.77;;;4.60;99.90;;;3.79;100.00;96377.13;5008791;28;20394;-45
2021/12/01 04:24:29;;;;;;;0.90;0.50;;;4.60;99.90;;;3.81;100.00;96377.94;5012138;28;20342;-48
2021/12/01 04:26:58;;;;;;;1.25;0.60;;;4.60;99.90;;;3.81;100.00;96375.34;4991976;28;20021;-48
2021/12/01 04:29:25;;;;;;;1.10;0.90;;;4.60;99.90;;;3.80;100.00;96371.88;5011086;28;20031;-52
2021/12/01 04:31:50;;;;;;;0.93;0.70;;;4.60;99.90;;;3.82;100.00;96364.00;5005047;28;20030;-48
2021/12/01 04:34:19;;;;;;;0.90;0.80;;;4.60;99.90;;;3.83;100.00;96358.75;5007612;28;20045;-48
2021/12/01 04:36:47;;;;;;;1.27;0.55;;;4.60;99.90;;;3.83;100.00;96350.91;5013358;28;20463;-46
2021/12/01 04:39:15;;;;;;;1.13;0.88;;;4.60;99.90;;;3.87;100.00;96345.63;5013627;28;20041;-47
2021/12/01 04:41:56;;;;;;;0.63;0.63;;;4.60;99.90;;;3.89;100.00;96338.59;5010938;28;20021;-47
2021/12/01 04:44:25;;;;;;;0.88;0.70;;;4.60;99.90;;;3.87;100.00;96315.16;5015057;28;20476;-48
2021/12/01 04:46:56;;;;;;;0.93;0.70;;;4.70;99.90;;;3.85;100.00;96316.13;5012366;28;20037;-47
2021/12/01 04:49:24;;;;;;;1.40;0.80;;;4.70;99.90;;;3.90;100.00;96315.09;5011937;28;20854;-48
2021/12/01 04:51:57;;;;;;;1.35;0.80;;;4.70;99.90;;;3.89;100.00;96308.16;5012307;28;20041;-47
2021/12/01 04:54:25;;;;;;;0.70;0.70;;;4.70;99.90;;;3.89;100.00;96305.53;5012943;28;20033;-46
2021/12/01 04:56:52;;;;;;;0.70;0.70;;;4.70;99.90;;;3.89;100.00;96296.88;5012065;28;20483;-48
2021/12/01 04:59:20;;;;;;;1.10;0.85;;;4.60;99.90;;;3.87;100.00;96290.84;5013609;28;20050;-49
2021/12/01 05:01:48;;;;;;;1.13;0.57;;;4.70;99.90;;;3.87;100.00;96281.25;5006623;28;20083;-48
2021/12/01 05:04:13;;;;;;;1.48;0.80;;;4.60;99.90;;;3.89;100.00;96281.22;5008308;28;20366;-47
2021/12/01 05:06:40;;;;;;;0.88;0.80;;;4.70;99.90;;;3.89;100.00;96273.41;5007475;28;20075;-47
2021/12/01 05:09:07;;;;;;;2.95;0.80;;;4.70;99.90;;;3.90;100.00;96270.75;5009990;28;20113;-48
2021/12/01 05:11:33;;;;;;;0.65;0.55;;;4.70;99.90;;;3.91;100.00;96266.38;4995742;28;20038;-48
2021/12/01 05:14:00;;;;;;;0.82;0.68;;;4.70;99.90;;;3.87;100.00;96257.78;5008852;28;20416;-46
2021/12/01 05:16:25;;;;;;;1.00;0.80;;;4.70;99.90;;;3.89;100.00;96255.16;5011111;28;20026;-46
2021/12/01 05:18:51;;;;;;;0.82;0.70;;;4.70;99.90;;;3.91;100.00;96249.00;5011386;28;20410;-45
2021/12/01 05:21:17;;;;;;;1.02;0.63;;;4.70;99.90;;;3.95;100.00;96248.00;5012095;28;20325;-48
2021/12/01 05:23:44;;;;;;;1.75;0.70;;;4.70;99.90;;;3.97;100.00;96253.19;5009738;28;20475;-46
2021/12/01 05:26:11;;;;;;;1.40;0.70;;;4.70;99.90;;;3.97;100.00;96253.19;5010826;28;20426;-45
2021/12/01 05:28:38;;;;;;;0.88;0.60;;;4.70;99.90;;;4.00;100.00;96255.69;5009444;28;20415;-46
2021/12/01 05:31:03;;;;;;;0.80;0.60;;;4.80;99.90;;;3.99;100.00;96254.84;5008081;28;20560;-48
2021/12/01 05:33:30;;;;;;;3.28;0.60;;;4.80;99.90;;;4.04;100.00;96256.44;5006667;28;20037;-48
2021/12/01 05:35:55;;;;;;;1.15;0.60;;;4.80;99.90;;;4.05;100.00;96248.56;5007300;28;20060;-48
2021/12/01 05:38:21;;;;;;;0.63;0.60;;;4.80;99.90;;;4.10;100.00;96246.69;5008960;28;20045;-47
2021/12/01 05:40:49;;;;;;;0.65;0.43;;;4.90;99.90;;;4.18;100.00;96242.09;5006437;28;20120;-46
2021/12/01 05:43:16;;;;;;;0.43;0.40;;;4.90;99.90;;;4.22;100.00;96240.25;5009492;28;20030;-47
2021/12/01 05:45:43;;;;;;;0.40;0.40;;;5.00;99.90;;;4.24;100.00;96241.06;5010657;28;20033;-49
2021/12/01 05:48:09;;;;;;;0.50;0.45;;;5.00;99.90;;;4.26;100.00;96228.81;5010316;28;20030;-48
2021/12/01 05:50:35;;;;;;;1.35;0.60;;;5.00;99.90;;;4.29;100.00;96239.16;5012574;28;20049;-47
2021/12/01 05:53:01;;;;;;;0.93;0.70;;;5.10;99.90;;;4.34;100.00;96225.97;4994146;28;20058;-45
2021/12/01 05:55:27;;;;;;;1.30;0.50;;;5.10;99.90;;;4.35;100.00;96222.47;5010682;28;20402;-45
2021/12/01 05:57:53;;;;;;;0.93;0.50;;;5.10;99.90;;;4.37;100.00;96223.25;5007514;28;20025;-47
2021/12/01 06:00:19;;;;;;;0.57;0.47;;;5.10;99.90;;;4.39;100.00;96218.84;5007962;28;20517;-47
2021/12/01 06:02:49;;;;;;;0.47;0.40;;;5.20;99.90;;;4.36;100.00;96214.59;5007191;28;20033;-47
2021/12/01 06:05:15;;;;;;;0.60;0.40;;;5.10;99.90;;;4.40;100.00;96202.31;4989302;28;20030;-47
2021/12/01 06:07:43;;;;;;;2.30;0.40;;;5.20;99.90;;;4.37;100.00;96192.78;5012416;28;20092;-46
2021/12/01 06:10:09;;;;;;;0.40;0.35;;;5.20;99.90;;;4.42;100.00;96194.41;5010628;28;20533;-47
2021/12/01 06:12:35;;;;;;;0.47;0.45;;;5.20;99.90;;;4.39;100.00;96185.75;5008885;28;20029;-46
2021/12/01 06:15:02;;;;;;;0.40;0.40;;;5.20;99.90;;;4.45;100.00;96186.47;5002602;28;20072;-44
2021/12/01 06:17:28;;;;;;;0.80;0.43;;;5.30;99.90;;;4.43;100.00;96181.28;4991943;28;20242;-45
2021/12/01 06:19:53;;;;;;;0.85;0.47;;;5.30;99.90;;;4.50;100.00;96176.75;5005051;28;20029;-43
2021/12/01 06:22:19;;;;;;;1.50;0.50;;;5.30;99.90;;;4.54;100.00;96166.16;5009063;28;20544;-46
2021/12/01 06:24:45;;;;;;;0.40;0.40;;;5.30;99.90;;;4.51;100.00;96155.81;5009506;28;20108;-48
2021/12/01 06:27:11;;;;;;;1.42;0.30;;;5.30;99.90;;;4.56;100.00;96164.34;5011551;28;20029;-46
2021/12/01 06:29:37;;;;;;;0.60;0.50;;;5.30;99.90;;;4.61;100.00;96160.72;5011912;28;20101;-45
2021/12/01 06:32:04;;;;;;;0.70;0.40;;;5.30;99.90;;;4.59;100.00;96159.03;5003319;28;20121;-49
2021/12/01 06:34:30;;;;;;;0.85;0.60;;;5.40;99.90;;;4.57;100.00;96159.97;5010642;28;20030;-43
2021/12/01 06:36:56;;;;;;;0.43;0.40;;;5.40;99.90;;;4.64;100.00;96155.41;5009848;28;20061;-47
2021/12/01 06:39:21;;;;;;;1.33;0.35;;;5.40;99.90;;;4.62;100.00;96158.06;5010290;28;20033;-48
2021/12/01 06:41:47;;;;;;;1.08;0.40;;;5.40;99.90;;;4.58;100.00;96151.25;5010686;28;20482;-47
2021/12/01 06:44:13;;;;;;;1.38;0.50;;;5.30;99.90;;;4.49;100.00;96154.16;5002199;28;20179;-44
2021/12/01 06:46:39;;;;;;;0.73;0.40;;;5.30;99.90;;;4.47;100.00;96148.09;4997595;28;20037;-42
2021/12/01 06:49:04;;;;;;;1.13;0.68;;;5.20;99.90;;;4.48;100.00;96144.59;4999853;28;20072;-46
2021/12/01 06:51:30;;;;;;;1.35;0.60;;;5.20;99.90;;;4.51;100.00;96131.47;5002529;28;20134;-46
2021/12/01 06:53:56;;;;;;;0.38;0.38;;;5.30;99.90;;;4.54;100.00;96123.50;4996990;28;20523;-47
2021/12/01 06:56:22;;;;;;;3.20;0.50;;;5.30;99.90;;;4.59;100.00;96116.38;4996315;28;20038;-49
2021/12/01 07:01:16;;;;;;;1.33;0.52;;;5.40;99.90;;;4.68;100.00;96112.59;5026884;28;20486;-41
2021/12/01 07:03:42;;;;;;;1.17;0.65;;;5.40;99.90;;;4.78;100.00;96114.00;5029078;28;20267;-43
2021/12/01 07:06:08;;;;;;;1.75;0.73;;;5.50;99.90;;;4.64;100.00;96077.91;5029783;28;20027;-44
2021/12/01 07:08:35;;;;;;;0.73;0.55;;;5.60;99.90;;;4.95;100.00;96103.81;5028106;28;20025;-44
2021/12/01 07:11:02;;;;;;;1.67;0.60;;;5.70;99.90;;;5.04;100.00;96107.84;5013056;28;20490;-41
2021/12/01 07:13:32;;;;;;;2.30;0.88;;;5.80;99.90;;;5.08;100.00;96109.47;5011276;28;20046;-43
2021/12/01 07:15:58;;;;;;;1.10;0.50;;;5.80;99.90;;;5.11;100.00;96103.25;5014302;28;20352;-44
2021/12/01 07:18:24;;;;;;;1.00;0.50;;;5.90;99.90;;;5.13;100.00;96104.06;5019701;28;20030;-42
2021/12/01 07:20:52;;;;;;;2.80;0.60;;;5.90;99.90;;;5.16;100.00;96096.09;5018986;28;20037;-42
2021/12/01 07:23:17;;;;;;;0.57;0.40;;;5.90;99.90;;;5.18;100.00;96099.50;5012492;28;20053;-43
2021/12/01 07:25:43;;;;;;;2.63;0.57;;;5.90;99.90;;;5.20;100.00;96094.25;5017075;28;20056;-42
2021/12/01 07:28:09;;;;;;;0.57;0.45;;;6.00;99.90;;;5.12;100.00;96066.63;5019890;28;20474;-43
2021/12/01 07:30:37;;;;;;;0.60;0.40;;;6.00;99.90;;;5.22;100.00;96071.50;5017496;28;20037;-42
2021/12/01 07:33:03;;;;;;;1.10;0.35;;;6.00;99.90;;;5.23;100.00;96074.06;5014826;28;20217;-42
2021/12/01 07:35:29;;;;;;;1.00;0.38;;;5.90;99.90;;;5.31;100.00;96060.72;5014544;28;20041;-43
2021/12/01 07:37:55;;;;;;;1.80;0.50;;;6.00;99.90;;;5.34;100.00;96052.75;5012491;28;20414;-42
2021/12/01 07:40:21;;;;;;;1.23;0.40;;;6.10;99.90;;;5.40;100.00;96056.91;5020340;28;20047;-43
2021/12/01 07:42:47;;;;;;;1.55;1.00;;;6.10;99.90;;;5.45;100.00;96041.88;5021223;28;20029;-43
2021/12/01 07:45:13;;;;;;;0.90;0.47;;;6.20;99.90;;;5.50;100.00;96035.56;5018201;28;22491;-46
2021/12/01 07:47:40;;;;;;;1.45;0.50;;;6.20;99.90;;;5.52;100.00;96035.50;5021683;28;20486;-42
2021/12/01 07:50:08;;;;;;;1.15;0.40;;;6.30;99.90;;;5.51;100.00;96031.22;5017732;28;20102;-44
2021/12/01 07:52:35;;;;;;;2.90;0.60;;;6.30;99.90;;;5.55;100.00;96025.78;5016734;28;20029;-44
2021/12/01 07:55:03;;;;;;;2.85;0.40;;;6.30;99.90;;;5.58;100.00;96013.50;5019098;28;20041;-44
2021/12/01 07:57:29;;;;;;;2.47;0.40;;;6.40;99.90;;;5.67;100.00;96010.50;5018321;28;20420;-42
2021/12/01 07:59:55;;;;;;;2.78;0.30;;;6.40;99.90;;;5.72;100.00;96001.59;5021205;28;20108;-45
2021/12/01 08:02:21;;;;;;;0.82;0.30;;;6.50;99.90;;;5.83;100.00;95992.44;5024112;28;20041;-44
2021/12/01 08:04:46;;;;;;;2.55;0.40;;;6.50;99.90;;;5.86;100.00;95989.72;5026284;28;20116;-43
2021/12/01 08:07:13;;;;;;;0.45;0.30;;;6.60;99.90;;;5.82;100.00;95980.28;5019287;28;20037;-44
2021/12/01 08:09:38;;;;;;;1.98;0.32;;;6.60;99.90;;;5.93;100.00;95986.78;5020557;28;20145;-42
2021/12/01 08:12:07;;;;;;;1.02;0.30;;;6.70;99.90;;;6.01;100.00;95975.16;5023047;28;20577;-44
2021/12/01 08:14:33;;;;;;;0.15;0.15;;;6.70;99.90;;;6.03;100.00;95961.13;5029900;28;20036;-42
2021/12/01 08:16:59;;;;;;;0.30;0.30;;;6.80;99.90;;;6.04;100.00;95956.72;5021578;28;20029;-42
2021/12/01 08:19:24;;;;;;;0.90;0.40;;;6.70;99.90;;;5.94;100.00;95956.25;5023935;28;20041;-43
2021/12/01 08:21:50;;;;;;;0.40;0.30;;;6.70;99.90;;;5.90;100.00;95957.25;5023295;28;20034;-42
2021/12/01 08:24:18;;;;;;;0.38;0.30;;;6.70;99.90;;;5.93;100.00;95958.00;5018654;28;20029;-42
2021/12/01 08:26:44;;;;;;;1.20;0.40;;;6.70;99.90;;;6.00;100.00;95952.56;5028597;28;20107;-43
2021/12/01 08:29:11;;;;;;;0.45;0.30;;;6.70;99.90;;;6.13;100.00;95950.25;5026527;28;20466;-42
2021/12/01 08:31:37;;;;;;;0.60;0.40;;;6.80;99.90;;;6.18;100.00;95946.53;5023888;28;20387;-43
2021/12/01 08:34:04;;;;;;;0.40;0.30;;;6.90;99.90;;;6.24;100.00;95938.41;5030799;28;20402;-46
2021/12/01 08:36:30;;;;;;;0.73;0.20;;;7.00;99.90;;;6.34;100.00;95935.41;5028007;28;20033;-44
2021/12/01 08:38:55;;;;;;;0.73;0.20;;;7.10;99.90;;;6.40;100.00;95930.72;5028675;28;20108;-43
2021/12/01 08:41:21;;;;;;;0.40;0.20;;;7.20;99.90;;;6.44;100.00;95928.84;5025948;28;20052;-41
2021/12/01 08:43:47;;;;;;;0.65;0.20;;;7.20;99.90;;;6.57;100.00;95937.00;5026857;28;20048;-43
2021/12/01 08:46:13;;;;;;;0.15;0.13;;;7.30;99.90;;;6.72;100.00;95920.59;5024328;28;20429;-43
2021/12/01 08:48:39;;;;;;;0.30;0.22;;;7.40;99.90;;;6.76;100.00;95919.53;5026302;28;20038;-43
2021/12/01 08:51:06;;;;;;;0.20;0.20;;;7.50;99.90;;;6.84;99.58;95904.31;5024667;28;20029;-42
2021/12/01 08:53:35;;;;;;;0.35;0.25;;;7.70;99.90;;;7.09;100.00;95908.44;5025014;28;20029;-42
2021/12/01 08:56:03;;;;;;;0.20;0.20;;;7.80;99.90;;;7.21;97.73;95899.13;5026634;28;20499;-43
2021/12/01 08:58:29;;;;;;;0.50;0.30;;;7.90;99.90;;;7.34;97.27;95892.38;5024948;28;20978;-42
2021/12/01 09:00:55;;;;;;;0.10;0.10;;;8.00;99.90;;;7.44;96.66;95892.78;5026666;28;20033;-42
2021/12/01 09:03:23;;;;;;;2.38;0.40;;;8.20;99.90;;;7.50;96.38;95892.50;5023526;28;20107;-44
2021/12/01 09:05:49;;;;;;;0.88;0.40;;;8.30;99.90;;;7.59;96.79;95875.44;5028512;28;20030;-43
2021/12/01 09:08:19;;;;;;;0.35;0.28;;;8.30;99.90;;;7.80;94.78;95881.38;5027373;28;20463;-43
2021/12/01 09:10:45;;;;;;;1.08;0.20;;;8.50;99.90;;;7.92;94.08;95866.81;5029682;28;20025;-42
2021/12/01 09:13:12;;;;;;;0.30;0.20;;;8.70;99.90;;;8.13;92.35;95852.59;5024232;28;20104;-46
2021/12/01 09:15:38;;;;;;;2.60;0.50;;;8.90;99.90;;;8.12;90.58;95868.41;5027589;28;20080;-43
2021/12/01 09:18:07;;;;;;;0.43;0.20;;;9.00;99.90;;;8.10;91.63;95831.72;5031243;28;20052;-41
2021/12/01 09:20:33;;;;;;;3.03;0.32;;;9.00;99.90;;;8.22;90.05;95854.72;5023593;28;20467;-44
2021/12/01 09:23:00;;;;;;;0.25;0.25;;;9.10;99.90;;;8.34;90.06;95847.97;5024614;28;20112;-41
2021/12/01 09:25:26;;;;;;;0.52;0.30;;;9.10;99.90;;;8.20;89.64;95834.72;5024132;28;20026;-41
2021/12/01 09:27:52;;;;;;;0.20;0.20;;;9.10;99.90;;;8.18;89.54;95837.44;5028877;28;20029;-43
2021/12/01 09:30:18;;;;;;;0.20;0.20;;;9.00;99.90;;;8.17;91.05;95825.22;5027719;28;20056;-41
2021/12/01 09:32:44;;;;;;;3.50;0.40;;;9.00;99.90;;;8.07;91.33;95826.63;5028361;28;20067;-41
2021/12/01 09:35:12;;;;;;;0.25;0.20;;;8.90;99.90;;;8.10;90.03;95808.09;5021503;28;20068;-42
2021/12/01 09:37:38;;;;;;;0.35;0.10;;;8.90;99.90;;;8.06;91.11;95801.31;5023440;28;20033;-42
2021/12/01 09:40:13;;;;;;;0.20;0.20;;;8.80;99.90;;;8.03;90.13;95804.94;5027674;28;20568;-44
2021/12/01 09:42:51;;;;;;;0.10;0.10;;;8.80;99.90;;;7.97;90.71;95802.66;5027707;28;20067;-41
2021/12/01 09:45:21;;;;;;;0.70;0.25;;;8.70;99.90;;;7.97;91.37;95786.06;5021767;28;20041;-42
2021/12/01 09:47:48;;;;;;;1.05;0.57;;;8.70;99.90;;;7.90;91.61;95774.19;5027510;28;20061;-41
2021/12/01 09:50:15;;;;;;;0.63;0.20;;;8.60;99.90;;;7.89;92.68;95767.22;5026924;28;20033;-42
2021/12/01 09:52:41;;;;;;;0.10;0.10;;;8.60;99.90;;;7.87;92.39;95780.41;5020772;28;20256;-45
2021/12/01 09:55:11;;;;;;;0.40;0.35;;;8.60;99.90;;;7.75;92.91;95749.56;5026899;28;20088;-45
2021/12/01 09:57:37;;;;;;;0.40;0.25;;;8.50;99.90;;;7.73;94.01;95762.75;5023253;28;20116;-45
2021/12/01 10:00:06;;;;;;;0.65;0.30;;;8.50;99.90;;;7.69;94.08;95761.22;5022809;28;20160;-42
2021/12/01 10:02:32;;;;;;;0.10;0.10;;;8.40;99.90;;;7.73;94.77;95747.00;5021514;28;20125;-42
2021/12/01 10:04:58;;;;;;;0.25;0.20;;;8.40;99.90;;;7.72;94.28;95737.47;5021970;28;20057;-42
2021/12/01 10:07:33;;;;;;;0.85;0.28;;;8.40;99.90;;;7.77;93.71;95740.69;5020922;28;20033;-42
2021/12/01 10:10:08;;;;;;;0.30;0.10;;;8.50;99.90;;;7.87;94.25;95745.47;5024440;28;20037;-44
2021/12/01 10:12:51;;;;;;;0.10;0.10;;;8.50;99.90;;;7.95;92.69;95741.50;5026505;28;20501;-44
2021/12/01 10:15:37;;;;;;;0.25;0.20;;;8.70;99.90;;;8.08;91.96;95741.69;5022789;28;20048;-42
2021/12/01 10:18:15;;;;;;;0.40;0.10;;;8.80;99.90;;;8.27;90.65;95741.53;5022191;28;20426;-43
2021/12/01 10:20:43;;;;;;;0.25;0.17;;;8.90;99.90;;;8.39;90.51;95747.91;5026762;28;20449;-41
2021/12/01 10:23:15;;;;;;;0.47;0.20;;;9.10;99.90;;;8.45;89.70;95739.72;5029010;28;20028;-41
2021/12/01 10:25:42;;;;;;;0.10;0.10;;;9.10;99.90;;;8.44;89.55;95709.16;5024987;28;20148;-42
2021/12/01 10:28:13;;;;;;;0.40;0.20;;;9.20;99.90;;;8.54;89.79;95714.72;5026204;28;20037;-41
2021/12/01 10:30:46;;;;;;;2.15;0.20;;;9.20;99.90;;;8.60;89.24;95703.88;5022527;28;20025;-42
2021/12/01 10:33:18;;;;;;;0.20;0.20;;;9.30;99.90;;;8.73;89.34;95711.91;5020801;28;20033;-43
2021/12/01 10:35:44;;;;;;;0.45;0.20;;;9.40;99.90;;;8.82;87.83;95687.75;5022063;28;20029;-44
2021/12/01 10:38:13;;;;;;;0.57;0.20;;;9.50;99.90;;;8.86;88.90;95691.88;5029478;28;20478;-43